sensor_id;sensor_type;location;lat;lon;timestamp;pressure;altitude;pressure_sealevel;temperature;humidity
44044;BME280;29709;52.396;16.796;2023-03-11T00:00:08;98755.87;;;9.01;89.84
44044;BME280;29709;52.396;16.796;2023-03-11T00:03:25;98749.32;;;9.02;88.79
44044;BME280;29709;52.396;16.796;2023-03-11T00:06:41;98748.07;;;8.98;90.03
44044;BME280;29709;52.396;16.796;2023-03-11T00:09:54;98751.66;;;9.11;89.50
44044;BME280;29709;52.396;16.796;2023-03-11T00:13:09;98740.90;;;9.16;89.19
44044;BME280;29709;52.396;16.796;2023-03-11T00:16:23;98739.44;;;9.27;88.36
44044;BME280;29709;52.396;16.796;2023-03-11T00:19:36;98736.26;;;9.17;87.92
44044;BME280;29709;52.396;16.796;2023-03-11T00:22:49;98734.16;;;8.99;88.21
44044;BME280;29709;52.396;16.796;2023-03-11T00:26:05;98737.71;;;8.93;88.40
44044;BME280;29709;52.396;16.796;2023-03-11T00:29:19;98733.09;;;8.87;89.08
44044;BME280;29709;52.396;16.796;2023-03-11T00:32:32;98739.16;;;8.82;89.17
44044;BME280;29709;52.396;16.796;2023-03-11T00:35:45;98729.27;;;8.81;89.32
44044;BME280;29709;52.396;16.796;2023-03-11T00:38:59;98733.48;;;8.84;88.98
44044;BME280;29709;52.396;16.796;2023-03-11T00:42:14;98730.54;;;8.79;88.67
44044;BME280;29709;52.396;16.796;2023-03-11T00:45:28;98736.83;;;8.73;89.28
44044;BME280;29709;52.396;16.796;2023-03-11T00:48:41;98725.46;;;8.69;89.40
44044;BME280;29709;52.396;16.796;2023-03-11T00:51:54;98725.25;;;8.71;89.57
44044;BME280;29709;52.396;16.796;2023-03-11T00:55:09;98719.77;;;8.71;90.14
44044;BME280;29709;52.396;16.796;2023-03-11T00:58:23;98717.90;;;8.78;89.56
44044;BME280;29709;52.396;16.796;2023-03-11T01:01:43;98713.27;;;8.78;89.61
44044;BME280;29709;52.396;16.796;2023-03-11T01:04:56;98716.84;;;8.79;89.50
44044;BME280;29709;52.396;16.796;2023-03-11T01:08:09;98713.05;;;8.80;89.29
44044;BME280;29709;52.396;16.796;2023-03-11T01:11:22;98708.41;;;8.80;89.06
44044;BME280;29709;52.396;16.796;2023-03-11T01:14:36;98703.15;;;8.79;89.06
44044;BME280;29709;52.396;16.796;2023-03-11T01:17:49;98703.35;;;8.77;89.17
44044;BME280;29709;52.396;16.796;2023-03-11T01:21:02;98707.79;;;8.78;89.43
44044;BME280;29709;52.396;16.796;2023-03-11T01:24:16;98701.88;;;8.81;89.54
44044;BME280;29709;52.396;16.796;2023-03-11T01:27:29;98704.19;;;8.84;89.34
44044;BME280;29709;52.396;16.796;2023-03-11T01:30:43;98701.27;;;8.86;89.04
44044;BME280;29709;52.396;16.796;2023-03-11T01:33:56;98704.40;;;8.83;88.76
44044;BME280;29709;52.396;16.796;2023-03-11T01:37:09;98699.98;;;8.82;89.37
44044;BME280;29709;52.396;16.796;2023-03-11T01:40:29;98706.30;;;8.82;89.39
44044;BME280;29709;52.396;16.796;2023-03-11T01:43:50;98703.98;;;8.79;89.42
44044;BME280;29709;52.396;16.796;2023-03-11T01:50:33;98704.62;;;8.81;89.07
44044;BME280;29709;52.396;16.796;2023-03-11T01:53:47;98703.98;;;8.79;88.93
44044;BME280;29709;52.396;16.796;2023-03-11T01:57:04;98700.63;;;8.77;89.42
44044;BME280;29709;52.396;16.796;2023-03-11T02:00:19;98694.30;;;8.77;89.26
44044;BME280;29709;52.396;16.796;2023-03-11T02:03:36;98691.74;;;8.75;89.11
44044;BME280;29709;52.396;16.796;2023-03-11T02:06:50;98687.74;;;8.71;89.19
44044;BME280;29709;52.396;16.796;2023-03-11T02:10:04;98701.44;;;8.71;89.78
44044;BME280;29709;52.396;16.796;2023-03-11T02:13:19;98699.33;;;8.73;90.02
44044;BME280;29709;52.396;16.796;2023-03-11T02:16:33;98694.69;;;8.74;89.42
44044;BME280;29709;52.396;16.796;2023-03-11T02:19:57;98698.94;;;8.76;89.37
44044;BME280;29709;52.396;16.796;2023-03-11T02:23:15;98690.90;;;8.75;89.20
44044;BME280;29709;52.396;16.796;2023-03-11T02:29:54;98699.13;;;8.68;89.05
44044;BME280;29709;52.396;16.796;2023-03-11T02:33:09;98705.02;;;8.65;90.20
44044;BME280;29709;52.396;16.796;2023-03-11T02:36:31;98694.70;;;8.67;89.79
44044;BME280;29709;52.396;16.796;2023-03-11T02:39:50;98699.33;;;8.66;90.35
44044;BME280;29709;52.396;16.796;2023-03-11T02:43:08;98700.39;;;8.65;89.90
44044;BME280;29709;52.396;16.796;2023-03-11T02:46:22;98718.23;;;8.48;89.50
44044;BME280;29709;52.396;16.796;2023-03-11T02:49:36;98711.88;;;8.34;89.42
44044;BME280;29709;52.396;16.796;2023-03-11T02:52:50;98731.92;;;8.07;87.89
44044;BME280;29709;52.396;16.796;2023-03-11T02:56:03;98737.98;;;7.61;86.79
44044;BME280;29709;52.396;16.796;2023-03-11T02:59:17;98748.08;;;7.11;86.57
44044;BME280;29709;52.396;16.796;2023-03-11T03:02:30;98746.44;;;6.74;87.30
44044;BME280;29709;52.396;16.796;2023-03-11T03:05:43;98753.11;;;6.50;86.78
44044;BME280;29709;52.396;16.796;2023-03-11T03:08:57;98759.76;;;6.26;87.22
44044;BME280;29709;52.396;16.796;2023-03-11T03:12:11;98774.52;;;6.02;87.70
44044;BME280;29709;52.396;16.796;2023-03-11T03:15:24;98785.91;;;5.91;87.25
44044;BME280;29709;52.396;16.796;2023-03-11T03:18:38;98789.45;;;5.77;87.81
44044;BME280;29709;52.396;16.796;2023-03-11T03:21:51;98791.87;;;5.57;86.99
44044;BME280;29709;52.396;16.796;2023-03-11T03:25:05;98801.77;;;5.35;87.02
44044;BME280;29709;52.396;16.796;2023-03-11T03:28:19;98789.50;;;5.16;87.14
44044;BME280;29709;52.396;16.796;2023-03-11T03:31:32;98794.30;;;4.91;87.14
44044;BME280;29709;52.396;16.796;2023-03-11T03:34:45;98813.28;;;4.77;87.29
44044;BME280;29709;52.396;16.796;2023-03-11T03:38:01;98817.26;;;4.66;87.35
44044;BME280;29709;52.396;16.796;2023-03-11T03:41:17;98831.43;;;4.53;87.59
44044;BME280;29709;52.396;16.796;2023-03-11T03:44:30;98840.47;;;4.46;87.93
44044;BME280;29709;52.396;16.796;2023-03-11T03:47:45;98853.81;;;4.32;87.78
44044;BME280;29709;52.396;16.796;2023-03-11T03:51:06;98868.98;;;4.19;87.77
44044;BME280;29709;52.396;16.796;2023-03-11T03:54:20;98872.77;;;4.01;87.94
44044;BME280;29709;52.396;16.796;2023-03-11T03:57:33;98879.95;;;3.86;87.84
44044;BME280;29709;52.396;16.796;2023-03-11T04:00:47;98888.60;;;3.73;88.65
44044;BME280;29709;52.396;16.796;2023-03-11T04:04:00;98887.79;;;3.57;88.63
44044;BME280;29709;52.396;16.796;2023-03-11T04:07:13;98889.65;;;3.48;89.02
44044;BME280;29709;52.396;16.796;2023-03-11T04:10:27;98900.52;;;3.48;88.86
44044;BME280;29709;52.396;16.796;2023-03-11T04:13:40;98902.73;;;3.44;89.03
44044;BME280;29709;52.396;16.796;2023-03-11T04:16:56;98902.02;;;3.42;88.56
44044;BME280;29709;52.396;16.796;2023-03-11T04:20:10;98908.63;;;3.32;88.59
44044;BME280;29709;52.396;16.796;2023-03-11T04:23:24;98918.31;;;3.26;88.67
44044;BME280;29709;52.396;16.796;2023-03-11T04:26:37;98925.43;;;3.19;88.40
44044;BME280;29709;52.396;16.796;2023-03-11T04:29:50;98933.38;;;3.04;88.56
44044;BME280;29709;52.396;16.796;2023-03-11T04:33:03;98936.57;;;3.00;88.40
44044;BME280;29709;52.396;16.796;2023-03-11T04:36:17;98947.05;;;2.86;88.92
44044;BME280;29709;52.396;16.796;2023-03-11T04:39:30;98952.98;;;2.82;89.20
44044;BME280;29709;52.396;16.796;2023-03-11T04:42:43;98960.59;;;2.78;89.01
44044;BME280;29709;52.396;16.796;2023-03-11T04:45:56;98974.31;;;2.77;89.20
44044;BME280;29709;52.396;16.796;2023-03-11T04:49:10;98987.88;;;2.77;89.14
44044;BME280;29709;52.396;16.796;2023-03-11T04:52:23;98994.83;;;2.71;89.25
44044;BME280;29709;52.396;16.796;2023-03-11T04:55:36;99005.30;;;2.66;89.22
44044;BME280;29709;52.396;16.796;2023-03-11T04:58:49;99013.60;;;2.65;89.30
44044;BME280;29709;52.396;16.796;2023-03-11T05:02:03;99025.80;;;2.60;89.32
44044;BME280;29709;52.396;16.796;2023-03-11T05:05:16;99027.50;;;2.62;89.15
44044;BME280;29709;52.396;16.796;2023-03-11T05:08:31;99032.48;;;2.48;89.41
44044;BME280;29709;52.396;16.796;2023-03-11T05:11:45;99038.22;;;2.45;89.21
44044;BME280;29709;52.396;16.796;2023-03-11T05:14:58;99051.55;;;2.39;89.75
44044;BME280;29709;52.396;16.796;2023-03-11T05:18:11;99053.59;;;2.37;89.63
44044;BME280;29709;52.396;16.796;2023-03-11T05:21:25;99066.45;;;2.35;89.54
44044;BME280;29709;52.396;16.796;2023-03-11T05:24:38;99070.34;;;2.32;89.54
44044;BME280;29709;52.396;16.796;2023-03-11T05:27:51;99087.22;;;2.26;89.60
44044;BME280;29709;52.396;16.796;2023-03-11T05:31:09;99099.60;;;2.28;89.72
44044;BME280;29709;52.396;16.796;2023-03-11T05:34:22;99113.88;;;2.30;89.57
44044;BME280;29709;52.396;16.796;2023-03-11T05:37:35;99126.42;;;2.31;89.18
44044;BME280;29709;52.396;16.796;2023-03-11T05:40:51;99131.08;;;2.21;89.32
44044;BME280;29709;52.396;16.796;2023-03-11T05:44:04;99145.92;;;2.17;89.73
44044;BME280;29709;52.396;16.796;2023-03-11T05:47:17;99155.55;;;2.12;89.85
44044;BME280;29709;52.396;16.796;2023-03-11T05:50:31;99169.10;;;2.12;90.22
44044;BME280;29709;52.396;16.796;2023-03-11T05:53:46;99175.12;;;2.06;90.18
44044;BME280;29709;52.396;16.796;2023-03-11T05:57:00;99182.18;;;1.98;90.35
44044;BME280;29709;52.396;16.796;2023-03-11T06:00:15;99189.99;;;2.01;90.00
44044;BME280;29709;52.396;16.796;2023-03-11T06:03:28;99203.55;;;2.01;90.42
44044;BME280;29709;52.396;16.796;2023-03-11T06:06:41;99224.37;;;2.01;90.44
44044;BME280;29709;52.396;16.796;2023-03-11T06:09:54;99227.61;;;2.05;90.20
44044;BME280;29709;52.396;16.796;2023-03-11T06:13:08;99245.58;;;2.06;90.26
44044;BME280;29709;52.396;16.796;2023-03-11T06:16:23;99258.43;;;2.03;90.36
44044;BME280;29709;52.396;16.796;2023-03-11T06:19:39;99260.44;;;2.01;90.56
44044;BME280;29709;52.396;16.796;2023-03-11T06:22:52;99276.38;;;2.05;89.78
44044;BME280;29709;52.396;16.796;2023-03-11T06:26:05;99291.84;;;1.94;89.61
44044;BME280;29709;52.396;16.796;2023-03-11T06:29:19;99298.27;;;1.93;89.63
44044;BME280;29709;52.396;16.796;2023-03-11T06:32:35;99324.98;;;1.88;89.94
44044;BME280;29709;52.396;16.796;2023-03-11T06:35:56;99344.67;;;1.81;89.41
44044;BME280;29709;52.396;16.796;2023-03-11T06:39:13;99363.94;;;1.78;89.80
44044;BME280;29709;52.396;16.796;2023-03-11T06:42:27;99385.46;;;1.79;90.17
44044;BME280;29709;52.396;16.796;2023-03-11T06:45:40;99397.42;;;1.77;90.24
44044;BME280;29709;52.396;16.796;2023-03-11T06:48:53;99406.27;;;1.79;90.33
44044;BME280;29709;52.396;16.796;2023-03-11T06:52:07;99412.09;;;1.84;90.13
44044;BME280;29709;52.396;16.796;2023-03-11T06:55:21;99431.05;;;1.84;90.06
44044;BME280;29709;52.396;16.796;2023-03-11T06:58:36;99445.61;;;1.73;90.12
44044;BME280;29709;52.396;16.796;2023-03-11T07:01:50;99457.85;;;1.77;90.34
44044;BME280;29709;52.396;16.796;2023-03-11T07:05:04;99475.55;;;1.81;90.37
44044;BME280;29709;52.396;16.796;2023-03-11T07:08:19;99486.23;;;1.83;89.41
44044;BME280;29709;52.396;16.796;2023-03-11T07:11:32;99488.95;;;1.83;89.54
44044;BME280;29709;52.396;16.796;2023-03-11T07:14:45;99501.79;;;1.81;89.73
44044;BME280;29709;52.396;16.796;2023-03-11T07:17:58;99510.32;;;1.86;90.01
44044;BME280;29709;52.396;16.796;2023-03-11T07:21:14;99525.72;;;1.85;89.99
44044;BME280;29709;52.396;16.796;2023-03-11T07:24:28;99541.72;;;1.88;89.75
44044;BME280;29709;52.396;16.796;2023-03-11T07:27:41;99559.67;;;1.89;89.77
44044;BME280;29709;52.396;16.796;2023-03-11T07:30:55;99563.39;;;1.88;89.54
44044;BME280;29709;52.396;16.796;2023-03-11T07:34:11;99566.22;;;1.87;89.69
44044;BME280;29709;52.396;16.796;2023-03-11T07:37:24;99578.64;;;1.89;89.70
44044;BME280;29709;52.396;16.796;2023-03-11T07:40:38;99584.33;;;1.86;89.44
44044;BME280;29709;52.396;16.796;2023-03-11T07:43:55;99589.33;;;1.91;89.52
44044;BME280;29709;52.396;16.796;2023-03-11T07:47:09;99603.15;;;1.97;89.52
44044;BME280;29709;52.396;16.796;2023-03-11T07:50:22;99605.59;;;2.00;89.14
44044;BME280;29709;52.396;16.796;2023-03-11T07:53:36;99608.55;;;1.97;88.69
44044;BME280;29709;52.396;16.796;2023-03-11T07:56:52;99631.68;;;2.01;88.67
44044;BME280;29709;52.396;16.796;2023-03-11T08:00:06;99647.10;;;2.11;88.09
44044;BME280;29709;52.396;16.796;2023-03-11T08:03:19;99668.48;;;2.14;88.03
44044;BME280;29709;52.396;16.796;2023-03-11T08:06:34;99674.34;;;2.09;88.19
44044;BME280;29709;52.396;16.796;2023-03-11T08:09:48;99686.31;;;2.16;88.29
44044;BME280;29709;52.396;16.796;2023-03-11T08:13:01;99686.45;;;2.15;88.20
44044;BME280;29709;52.396;16.796;2023-03-11T08:16:17;99706.73;;;2.11;88.69
44044;BME280;29709;52.396;16.796;2023-03-11T08:19:31;99711.84;;;2.04;88.48
44044;BME280;29709;52.396;16.796;2023-03-11T08:22:44;99725.38;;;1.94;88.71
44044;BME280;29709;52.396;16.796;2023-03-11T08:25:57;99740.92;;;1.92;91.77
44044;BME280;29709;52.396;16.796;2023-03-11T08:29:11;99742.78;;;1.92;89.61
44044;BME280;29709;52.396;16.796;2023-03-11T08:32:24;99751.90;;;1.91;89.62
44044;BME280;29709;52.396;16.796;2023-03-11T08:35:37;99763.73;;;1.90;89.45
44044;BME280;29709;52.396;16.796;2023-03-11T08:38:51;99775.30;;;1.92;89.25
44044;BME280;29709;52.396;16.796;2023-03-11T08:42:04;99778.72;;;1.94;89.00
44044;BME280;29709;52.396;16.796;2023-03-11T08:45:17;99785.55;;;1.98;88.66
44044;BME280;29709;52.396;16.796;2023-03-11T08:48:32;99796.13;;;2.01;88.45
44044;BME280;29709;52.396;16.796;2023-03-11T08:51:46;99803.98;;;2.04;88.05
44044;BME280;29709;52.396;16.796;2023-03-11T08:54:59;99797.42;;;2.07;87.87
44044;BME280;29709;52.396;16.796;2023-03-11T08:58:12;99820.96;;;2.06;87.99
44044;BME280;29709;52.396;16.796;2023-03-11T09:01:25;99834.37;;;2.08;87.60
44044;BME280;29709;52.396;16.796;2023-03-11T09:04:40;99853.81;;;2.13;87.63
44044;BME280;29709;52.396;16.796;2023-03-11T09:07:53;99859.94;;;2.15;87.44
44044;BME280;29709;52.396;16.796;2023-03-11T09:11:07;99863.94;;;2.11;87.58
44044;BME280;29709;52.396;16.796;2023-03-11T09:14:21;99868.03;;;2.05;88.14
44044;BME280;29709;52.396;16.796;2023-03-11T09:17:34;99881.05;;;2.11;87.76
44044;BME280;29709;52.396;16.796;2023-03-11T09:20:47;99887.47;;;2.10;88.03
44044;BME280;29709;52.396;16.796;2023-03-11T09:24:01;99885.61;;;2.11;87.29
44044;BME280;29709;52.396;16.796;2023-03-11T09:27:16;99897.20;;;2.22;87.29
44044;BME280;29709;52.396;16.796;2023-03-11T09:30:29;99898.50;;;2.28;86.13
44044;BME280;29709;52.396;16.796;2023-03-11T09:33:44;99910.91;;;2.21;86.13
44044;BME280;29709;52.396;16.796;2023-03-11T09:36:59;99914.01;;;2.16;86.33
44044;BME280;29709;52.396;16.796;2023-03-11T09:40:19;99925.71;;;2.17;86.38
44044;BME280;29709;52.396;16.796;2023-03-11T09:43:42;99931.99;;;2.17;86.89
44044;BME280;29709;52.396;16.796;2023-03-11T09:50:31;99951.38;;;2.43;86.60
44044;BME280;29709;52.396;16.796;2023-03-11T09:53:46;99951.80;;;2.48;86.47
44044;BME280;29709;52.396;16.796;2023-03-11T09:57:02;99960.40;;;2.53;86.35
44044;BME280;29709;52.396;16.796;2023-03-11T10:00:19;99977.85;;;2.60;86.02
44044;BME280;29709;52.396;16.796;2023-03-11T10:03:35;100002.55;;;2.67;85.97
44044;BME280;29709;52.396;16.796;2023-03-11T10:06:50;100005.98;;;2.69;86.14
44044;BME280;29709;52.396;16.796;2023-03-11T10:10:04;100010.13;;;2.64;85.86
44044;BME280;29709;52.396;16.796;2023-03-11T10:13:28;100013.23;;;2.59;86.05
44044;BME280;29709;52.396;16.796;2023-03-11T10:20:18;100036.25;;;2.34;86.14
44044;BME280;29709;52.396;16.796;2023-03-11T10:27:06;100051.10;;;2.09;88.03
44044;BME280;29709;52.396;16.796;2023-03-11T10:30:30;100049.30;;;2.19;87.38
44044;BME280;29709;52.396;16.796;2023-03-11T10:37:16;100066.79;;;2.36;86.15
44044;BME280;29709;52.396;16.796;2023-03-11T10:40:34;100067.56;;;2.48;86.13
44044;BME280;29709;52.396;16.796;2023-03-11T10:47:23;100083.81;;;2.69;84.95
44044;BME280;29709;52.396;16.796;2023-03-11T10:54:03;100094.27;;;2.73;84.30
44044;BME280;29709;52.396;16.796;2023-03-11T10:57:26;100107.98;;;2.72;84.16
44044;BME280;29709;52.396;16.796;2023-03-11T11:00:41;100114.66;;;2.68;83.80
44044;BME280;29709;52.396;16.796;2023-03-11T11:03:59;100126.50;;;2.67;84.39
44044;BME280;29709;52.396;16.796;2023-03-11T11:07:25;100119.64;;;2.63;83.66
44044;BME280;29709;52.396;16.796;2023-03-11T11:11:02;100130.93;;;2.68;84.48
44044;BME280;29709;52.396;16.796;2023-03-11T11:14:08;100126.36;;;2.68;83.75
44044;BME280;29709;52.396;16.796;2023-03-11T11:17:25;100129.27;;;2.76;83.55
44044;BME280;29709;52.396;16.796;2023-03-11T11:24:16;100153.75;;;2.86;83.07
44044;BME280;29709;52.396;16.796;2023-03-11T11:27:30;100165.33;;;2.88;83.56
44044;BME280;29709;52.396;16.796;2023-03-11T11:31:01;100161.89;;;2.86;83.29
44044;BME280;29709;52.396;16.796;2023-03-11T11:37:38;100174.74;;;2.84;83.36
44044;BME280;29709;52.396;16.796;2023-03-11T11:40:58;100183.81;;;2.73;83.93
44044;BME280;29709;52.396;16.796;2023-03-11T11:44:18;100195.60;;;2.63;84.35
44044;BME280;29709;52.396;16.796;2023-03-11T11:47:35;100200.68;;;2.56;84.89
44044;BME280;29709;52.396;16.796;2023-03-11T11:54:26;100222.09;;;2.38;85.05
44044;BME280;29709;52.396;16.796;2023-03-11T11:57:41;100223.85;;;2.28;85.03
44044;BME280;29709;52.396;16.796;2023-03-11T12:04:29;100235.12;;;2.23;85.29
44044;BME280;29709;52.396;16.796;2023-03-11T12:07:53;100232.53;;;2.22;84.98
44044;BME280;29709;52.396;16.796;2023-03-11T12:14:46;100228.38;;;2.39;85.27
44044;BME280;29709;52.396;16.796;2023-03-11T12:18:07;100236.59;;;2.48;84.05
44044;BME280;29709;52.396;16.796;2023-03-11T12:21:35;100247.07;;;2.53;82.32
44044;BME280;29709;52.396;16.796;2023-03-11T12:31:41;100289.10;;;3.00;77.82
44044;BME280;29709;52.396;16.796;2023-03-11T12:35:08;100278.53;;;2.97;75.96
44044;BME280;29709;52.396;16.796;2023-03-11T12:38:25;100276.22;;;2.93;77.27
44044;BME280;29709;52.396;16.796;2023-03-11T12:41:39;100283.02;;;2.87;75.22
44044;BME280;29709;52.396;16.796;2023-03-11T12:45:05;100292.75;;;2.89;77.25
44044;BME280;29709;52.396;16.796;2023-03-11T13:08:52;100319.11;;;2.99;73.03
44044;BME280;29709;52.396;16.796;2023-03-11T13:15:36;100339.90;;;3.09;72.69
44044;BME280;29709;52.396;16.796;2023-03-11T13:18:49;100356.60;;;3.05;72.22
44044;BME280;29709;52.396;16.796;2023-03-11T13:22:08;100367.70;;;3.02;72.67
44044;BME280;29709;52.396;16.796;2023-03-11T13:25:29;100367.92;;;3.10;73.64
44044;BME280;29709;52.396;16.796;2023-03-11T13:28:55;100375.69;;;3.14;72.78
44044;BME280;29709;52.396;16.796;2023-03-11T13:45:53;100389.24;;;3.77;69.59
44044;BME280;29709;52.396;16.796;2023-03-11T13:49:22;100404.51;;;3.68;66.90
44044;BME280;29709;52.396;16.796;2023-03-11T13:52:43;100403.16;;;3.63;66.44
44044;BME280;29709;52.396;16.796;2023-03-11T13:56:42;100413.45;;;3.59;64.81
44044;BME280;29709;52.396;16.796;2023-03-11T14:00:05;100415.59;;;3.56;65.88
44044;BME280;29709;52.396;16.796;2023-03-11T14:03:17;100430.09;;;3.66;65.29
44044;BME280;29709;52.396;16.796;2023-03-11T14:06:35;100422.00;;;3.75;65.49
44044;BME280;29709;52.396;16.796;2023-03-11T14:09:48;100433.80;;;3.86;64.78
44044;BME280;29709;52.396;16.796;2023-03-11T14:13:13;100443.26;;;3.91;64.74
44044;BME280;29709;52.396;16.796;2023-03-11T14:16:34;100449.74;;;4.00;64.04
44044;BME280;29709;52.396;16.796;2023-03-11T14:20:03;100462.35;;;4.01;62.30
44044;BME280;29709;52.396;16.796;2023-03-11T14:23:19;100473.58;;;3.87;59.17
44044;BME280;29709;52.396;16.796;2023-03-11T14:26:33;100473.59;;;3.66;59.33
44044;BME280;29709;52.396;16.796;2023-03-11T14:29:47;100474.43;;;3.66;60.26
44044;BME280;29709;52.396;16.796;2023-03-11T14:33:17;100486.17;;;3.67;60.38
44044;BME280;29709;52.396;16.796;2023-03-11T14:39:55;100485.38;;;3.97;62.50
44044;BME280;29709;52.396;16.796;2023-03-11T14:43:10;100513.01;;;4.02;61.41
44044;BME280;29709;52.396;16.796;2023-03-11T14:46:27;100494.25;;;3.99;61.47
44044;BME280;29709;52.396;16.796;2023-03-11T14:49:41;100494.18;;;4.10;61.99
44044;BME280;29709;52.396;16.796;2023-03-11T14:53:02;100514.41;;;4.17;62.48
44044;BME280;29709;52.396;16.796;2023-03-11T14:56:20;100510.80;;;4.17;62.12
44044;BME280;29709;52.396;16.796;2023-03-11T14:59:36;100512.41;;;4.19;63.42
44044;BME280;29709;52.396;16.796;2023-03-11T15:06:18;100526.34;;;4.05;63.40
44044;BME280;29709;52.396;16.796;2023-03-11T15:09:32;100530.26;;;3.91;62.59
44044;BME280;29709;52.396;16.796;2023-03-11T15:12:45;100535.97;;;3.88;63.87
44044;BME280;29709;52.396;16.796;2023-03-11T15:16:04;100541.78;;;3.84;64.38
44044;BME280;29709;52.396;16.796;2023-03-11T15:22:43;100548.76;;;3.76;65.47
44044;BME280;29709;52.396;16.796;2023-03-11T15:25:56;100558.36;;;3.81;66.73
44044;BME280;29709;52.396;16.796;2023-03-11T15:29:15;100576.94;;;3.75;68.57
44044;BME280;29709;52.396;16.796;2023-03-11T15:32:36;100574.77;;;3.58;70.88
44044;BME280;29709;52.396;16.796;2023-03-11T15:35:50;100584.19;;;3.43;70.89
44044;BME280;29709;52.396;16.796;2023-03-11T15:42:29;100584.61;;;3.27;71.90
44044;BME280;29709;52.396;16.796;2023-03-11T15:45:43;100583.89;;;3.25;72.86
44044;BME280;29709;52.396;16.796;2023-03-11T15:48:56;100584.61;;;3.27;72.38
44044;BME280;29709;52.396;16.796;2023-03-11T15:52:10;100594.60;;;3.38;72.50
44044;BME280;29709;52.396;16.796;2023-03-11T15:55:25;100587.43;;;3.37;72.25
44044;BME280;29709;52.396;16.796;2023-03-11T15:58:40;100592.01;;;3.36;72.43
44044;BME280;29709;52.396;16.796;2023-03-11T16:01:54;100598.07;;;3.29;72.41
44044;BME280;29709;52.396;16.796;2023-03-11T16:08:32;100605.86;;;3.11;73.00
44044;BME280;29709;52.396;16.796;2023-03-11T16:11:46;100615.13;;;3.08;73.05
44044;BME280;29709;52.396;16.796;2023-03-11T16:14:59;100614.88;;;3.00;73.21
44044;BME280;29709;52.396;16.796;2023-03-11T16:18:13;100615.75;;;3.01;73.64
44044;BME280;29709;52.396;16.796;2023-03-11T16:21:35;100627.73;;;2.98;73.84
44044;BME280;29709;52.396;16.796;2023-03-11T16:24:51;100631.17;;;3.00;73.70
44044;BME280;29709;52.396;16.796;2023-03-11T16:28:05;100627.73;;;2.98;73.09
44044;BME280;29709;52.396;16.796;2023-03-11T16:31:19;100636.39;;;2.92;73.11
44044;BME280;29709;52.396;16.796;2023-03-11T16:34:33;100638.33;;;2.90;73.41
44044;BME280;29709;52.396;16.796;2023-03-11T16:37:47;100639.58;;;2.86;73.27
44044;BME280;29709;52.396;16.796;2023-03-11T16:41:01;100648.70;;;2.85;73.35
44044;BME280;29709;52.396;16.796;2023-03-11T16:44:15;100650.69;;;2.83;73.15
44044;BME280;29709;52.396;16.796;2023-03-11T16:47:28;100658.83;;;2.83;73.29
44044;BME280;29709;52.396;16.796;2023-03-11T16:50:41;100666.98;;;2.83;72.85
44044;BME280;29709;52.396;16.796;2023-03-11T16:53:54;100667.96;;;2.82;72.97
44044;BME280;29709;52.396;16.796;2023-03-11T16:57:07;100676.70;;;2.74;72.65
44044;BME280;29709;52.396;16.796;2023-03-11T17:00:21;100683.84;;;2.64;72.26
44044;BME280;29709;52.396;16.796;2023-03-11T17:03:34;100679.27;;;2.65;72.76
44044;BME280;29709;52.396;16.796;2023-03-11T17:06:47;100688.15;;;2.67;72.79
44044;BME280;29709;52.396;16.796;2023-03-11T17:10:01;100698.40;;;2.63;72.48
44044;BME280;29709;52.396;16.796;2023-03-11T17:13:14;100707.99;;;2.56;72.19
44044;BME280;29709;52.396;16.796;2023-03-11T17:16:27;100715.39;;;2.54;72.49
44044;BME280;29709;52.396;16.796;2023-03-11T17:19:40;100711.07;;;2.51;72.14
44044;BME280;29709;52.396;16.796;2023-03-11T17:22:54;100715.11;;;2.46;72.05
44044;BME280;29709;52.396;16.796;2023-03-11T17:26:12;100720.77;;;2.43;72.08
44044;BME280;29709;52.396;16.796;2023-03-11T17:29:26;100733.48;;;2.42;71.82
44044;BME280;29709;52.396;16.796;2023-03-11T17:32:39;100727.41;;;2.39;72.03
44044;BME280;29709;52.396;16.796;2023-03-11T17:36:02;100733.31;;;2.33;72.08
44044;BME280;29709;52.396;16.796;2023-03-11T17:39:17;100748.19;;;2.27;72.00
44044;BME280;29709;52.396;16.796;2023-03-11T17:42:30;100739.07;;;2.28;72.21
44044;BME280;29709;52.396;16.796;2023-03-11T17:45:45;100748.19;;;2.27;72.39
44044;BME280;29709;52.396;16.796;2023-03-11T17:48:58;100750.70;;;2.30;72.19
44044;BME280;29709;52.396;16.796;2023-03-11T17:52:11;100764.34;;;2.28;72.05
44044;BME280;29709;52.396;16.796;2023-03-11T17:55:26;100767.29;;;2.25;72.23
44044;BME280;29709;52.396;16.796;2023-03-11T17:58:39;100769.15;;;2.25;72.21
44044;BME280;29709;52.396;16.796;2023-03-11T18:01:52;100771.98;;;2.23;72.23
44044;BME280;29709;52.396;16.796;2023-03-11T18:05:06;100780.86;;;2.25;72.31
44044;BME280;29709;52.396;16.796;2023-03-11T18:08:21;100791.46;;;2.28;72.18
44044;BME280;29709;52.396;16.796;2023-03-11T18:11:34;100789.35;;;2.21;72.17
44044;BME280;29709;52.396;16.796;2023-03-11T18:14:48;100796.20;;;2.14;72.73
44044;BME280;29709;52.396;16.796;2023-03-11T18:18:01;100802.93;;;2.08;73.25
44044;BME280;29709;52.396;16.796;2023-03-11T18:21:22;100808.59;;;2.05;73.56
44044;BME280;29709;52.396;16.796;2023-03-11T18:24:35;100806.98;;;2.02;73.78
44044;BME280;29709;52.396;16.796;2023-03-11T18:27:49;100815.98;;;2.03;73.95
44044;BME280;29709;52.396;16.796;2023-03-11T18:31:06;100811.12;;;1.95;74.31
44044;BME280;29709;52.396;16.796;2023-03-11T18:34:20;100817.28;;;1.97;74.50
44044;BME280;29709;52.396;16.796;2023-03-11T18:37:34;100823.80;;;1.95;75.04
44044;BME280;29709;52.396;16.796;2023-03-11T18:40:56;100830.09;;;1.95;74.82
44044;BME280;29709;52.396;16.796;2023-03-11T18:44:09;100833.90;;;1.93;75.18
44044;BME280;29709;52.396;16.796;2023-03-11T18:47:23;100834.01;;;1.91;75.25
44044;BME280;29709;52.396;16.796;2023-03-11T18:50:36;100836.09;;;1.88;75.40
44044;BME280;29709;52.396;16.796;2023-03-11T18:53:49;100845.41;;;1.84;75.56